createdAt,value
2023-04-02T00:01:51.895Z,16.50
2023-04-02T00:04:23.694Z,13.90
2023-04-02T00:07:31.242Z,12.10
2023-04-02T00:10:01.579Z,14.30
2023-04-02T00:12:32.501Z,12.90
2023-04-02T00:15:03.327Z,11.00
2023-04-02T00:17:34.782Z,15.00
2023-04-02T00:20:07.617Z,15.20
2023-04-02T00:22:45.443Z,16.20
2023-04-02T00:25:16.274Z,18.40
2023-04-02T00:27:46.364Z,17.60
2023-04-02T00:30:17.900Z,15.30
2023-04-02T00:35:28.324Z,17.60
2023-04-02T00:37:58.561Z,17.00
2023-04-02T00:40:31.456Z,16.90
2023-04-02T00:43:04.682Z,14.60
2023-04-02T00:45:41.457Z,15.10
2023-04-02T00:48:29.581Z,17.80
2023-04-02T00:51:08.811Z,17.00
2023-04-02T00:53:39.736Z,19.80
2023-04-02T00:56:29.092Z,14.90
2023-04-02T00:58:59.108Z,14.10
2023-04-02T01:01:38.133Z,16.40
2023-04-02T01:04:34.707Z,15.50
2023-04-02T01:07:09.176Z,14.60
2023-04-02T01:09:55.858Z,15.90
2023-04-02T01:13:07.401Z,17.20
2023-04-02T01:15:50.360Z,14.00
2023-04-02T01:18:54.100Z,18.70
2023-04-02T01:21:30.965Z,18.40
2023-04-02T01:24:10.409Z,17.10
2023-04-02T01:26:47.640Z,18.10
2023-04-02T01:29:16.903Z,16.20
2023-04-02T01:31:50.109Z,18.20
2023-04-02T01:34:25.254Z,17.00
2023-04-02T01:37:18.184Z,19.90
2023-04-02T01:40:06.935Z,13.70
2023-04-02T01:43:31.037Z,16.20
2023-04-02T01:46:24.527Z,15.20
2023-04-02T01:48:57.278Z,14.30
2023-04-02T01:51:35.833Z,14.30
2023-04-02T01:54:08.969Z,17.40
2023-04-02T01:56:40.202Z,14.40
2023-04-02T01:59:12.158Z,15.90
2023-04-02T02:02:06.834Z,16.70
2023-04-02T02:04:39.767Z,17.90
2023-04-02T02:07:17.328Z,13.90
2023-04-02T02:09:50.319Z,17.50
2023-04-02T02:12:20.312Z,16.50
2023-04-02T02:14:54.193Z,15.70
2023-04-02T02:17:35.274Z,17.70
2023-04-02T02:20:12.406Z,19.00
2023-04-02T02:22:50.285Z,18.90
2023-04-02T02:25:27.604Z,16.30
2023-04-02T02:28:09.738Z,14.30
2023-04-02T02:30:48.306Z,13.30
2023-04-02T02:33:40.265Z,13.60
2023-04-02T02:36:57.743Z,14.60
2023-04-02T02:39:42.292Z,14.90
2023-04-02T02:42:19.173Z,13.80
2023-04-02T02:44:51.209Z,14.80
2023-04-02T02:47:35.473Z,13.10
2023-04-02T02:50:18.636Z,14.90
2023-04-02T02:52:53.795Z,17.40
2023-04-02T02:55:28.414Z,15.00
2023-04-02T02:58:28.432Z,13.60
2023-04-02T03:01:09.109Z,17.30
2023-04-02T03:03:41.821Z,16.40
2023-04-02T03:06:21.530Z,15.30
2023-04-02T03:09:05.469Z,15.70
2023-04-02T03:11:50.003Z,17.30
2023-04-02T03:14:46.894Z,19.30
2023-04-02T03:17:27.664Z,18.70
2023-04-02T03:20:13.022Z,20.30
2023-04-02T03:23:01.198Z,20.70
2023-04-02T03:25:46.517Z,19.50
2023-04-02T03:28:24.115Z,18.20
2023-04-02T03:31:05.644Z,19.50
2023-04-02T03:33:41.108Z,20.30
2023-04-02T03:36:38.718Z,17.60
2023-04-02T03:39:18.790Z,19.00
2023-04-02T03:41:59.724Z,20.10
2023-04-02T03:44:47.920Z,19.40
2023-04-02T03:47:31.162Z,16.80
2023-04-02T03:50:33.504Z,15.30
2023-04-02T03:53:05.011Z,13.10
2023-04-02T03:55:38.283Z,13.10
2023-04-02T03:58:30.071Z,13.10
2023-04-02T04:01:05.303Z,15.60
2023-04-02T04:03:50.504Z,14.90
2023-04-02T04:06:29.874Z,18.30
2023-04-02T04:09:21.104Z,17.90
2023-04-02T04:11:54.928Z,15.20
2023-04-02T04:14:38.197Z,17.00
2023-04-02T04:17:30.863Z,16.70
2023-04-02T04:20:16.094Z,13.90
2023-04-02T04:22:50.441Z,16.80
2023-04-02T04:25:30.935Z,14.70
2023-04-02T04:28:27.421Z,13.80
2023-04-02T04:31:09.724Z,22.90
2023-04-02T04:33:47.629Z,17.30
2023-04-02T04:36:32.603Z,18.60
2023-04-02T04:39:17.648Z,16.40
2023-04-02T04:41:50.747Z,15.30
2023-04-02T04:44:54.048Z,14.10
2023-04-02T04:47:41.124Z,15.20
2023-04-02T04:50:34.674Z,15.70
2023-04-02T04:53:18.350Z,15.30
2023-04-02T04:55:52.407Z,18.00
2023-04-02T04:58:41.322Z,16.10
2023-04-02T05:04:11.635Z,14.40
2023-04-02T05:06:45.913Z,12.20
2023-04-02T05:09:25.107Z,14.40
2023-04-02T05:12:17.303Z,15.00
2023-04-02T05:14:58.856Z,16.40
2023-04-02T05:17:53.514Z,15.20
2023-04-02T05:20:35.564Z,14.70
2023-04-02T05:23:14.191Z,15.20
2023-04-02T05:26:31.666Z,12.70
2023-04-02T05:29:08.917Z,12.40
2023-04-02T05:31:55.702Z,13.10
2023-04-02T05:34:30.649Z,12.70
2023-04-02T05:36:59.840Z,15.20
2023-04-02T05:39:29.218Z,12.40
2023-04-02T05:42:04.582Z,11.20
2023-04-02T05:44:56.975Z,13.30
2023-04-02T05:47:30.297Z,11.40
2023-04-02T05:50:06.097Z,11.30
2023-04-02T05:52:47.729Z,12.30
2023-04-02T05:55:19.988Z,12.80
2023-04-02T05:58:17.631Z,11.30
2023-04-02T06:00:52.401Z,15.20
2023-04-02T06:03:39.139Z,12.30
2023-04-02T06:06:40.596Z,13.50
2023-04-02T06:09:28.610Z,11.80
2023-04-02T06:12:17.805Z,13.60
2023-04-02T06:14:49.839Z,12.50
2023-04-02T06:17:21.788Z,11.50
2023-04-02T06:19:53.291Z,11.90
2023-04-02T06:22:36.779Z,11.70
2023-04-02T06:25:15.446Z,12.30
2023-04-02T06:27:47.506Z,9.60
2023-04-02T06:30:31.037Z,11.50
